Time;durP1;ratioP1;P1;durP2;ratioP2;P2;SDS_P1;SDS_P2;PMS_P1;PMS_P2;Temp;Humidity;BMP_temperature;BMP_pressure;BME280_temperature;BME280_humidity;BME280_pressure;Samples;Min_cycle;Max_cycle;Signal;HPM_P1;HPM_P2
2023/07/03 00:02:01;;;;;;;18.98;11.73;;;;;;;16.39;55.97;96456.75;4916148;29;20139;-76
2023/07/03 00:04:28;;;;;;;23.05;12.32;;;;;;;16.39;56.15;96448.88;4919230;29;20059;-76
2023/07/03 00:06:56;;;;;;;23.00;12.68;;;;;;;16.37;56.16;96448.28;4919533;29;20047;-76
2023/07/03 00:09:24;;;;;;;22.52;12.48;;;;;;;16.32;56.50;96450.78;4915549;29;20048;-76
2023/07/03 00:11:53;;;;;;;22.73;12.85;;;;;;;16.26;56.49;96441.13;4915811;29;20107;-76
2023/07/03 00:14:20;;;;;;;22.38;12.27;;;;;;;16.22;56.60;96447.88;4916148;29;20477;-75
2023/07/03 00:16:48;;;;;;;22.10;12.30;;;;;;;16.20;56.45;96442.03;4915957;29;20056;-76
2023/07/03 00:19:16;;;;;;;23.17;12.93;;;;;;;16.20;56.79;96442.03;4915575;29;20464;-76
2023/07/03 00:21:44;;;;;;;22.15;12.20;;;;;;;16.20;56.74;96444.66;4915697;29;20075;-76
2023/07/03 00:24:11;;;;;;;20.20;12.52;;;;;;;16.18;56.60;96438.81;4915748;29;20056;-76
2023/07/03 00:26:39;;;;;;;23.73;13.00;;;;;;;16.17;56.72;96431.94;4915585;29;20084;-76
2023/07/03 00:29:08;;;;;;;24.77;13.27;;;;;;;16.15;57.00;96434.00;4915485;29;20079;-76
2023/07/03 00:31:36;;;;;;;22.52;13.25;;;;;;;16.09;56.89;96434.88;4916118;29;20220;-76
2023/07/03 00:34:03;;;;;;;21.23;12.68;;;;;;;16.05;56.99;96429.25;4916142;29;20052;-76
2023/07/03 00:36:31;;;;;;;22.13;11.82;;;;;;;16.02;57.08;96425.22;4915844;29;20059;-76
2023/07/03 00:38:59;;;;;;;19.55;11.98;;;;;;;15.98;57.10;96439.88;4915453;29;20508;-76
2023/07/03 00:41:27;;;;;;;19.23;11.55;;;;;;;15.95;57.07;96439.50;4915878;29;20052;-76
2023/07/03 00:43:55;;;;;;;20.85;12.55;;;;;;;15.93;57.04;96446.78;4916143;29;20059;-76
2023/07/03 00:46:24;;;;;;;20.27;11.93;;;;;;;15.86;57.66;96452.13;4915773;29;20134;-76
2023/07/03 00:48:52;;;;;;;21.58;12.13;;;;;;;15.83;57.45;96448.13;4915579;29;20048;-77
2023/07/03 00:51:20;;;;;;;20.92;11.90;;;;;;;15.83;57.66;96452.53;4915111;29;20148;-75
2023/07/03 00:53:47;;;;;;;21.27;12.40;;;;;;;15.80;57.63;96445.09;4915451;29;20079;-75
2023/07/03 00:56:15;;;;;;;23.98;12.95;;;;;;;15.77;57.78;96448.19;4915623;29;20139;-76
2023/07/03 00:58:42;;;;;;;22.67;12.60;;;;;;;15.74;58.13;96445.97;4915520;29;20098;-76
2023/07/03 01:01:17;;;;;;;21.17;12.15;;;;;;;15.74;57.94;96448.59;4915169;29;20052;-76
2023/07/03 01:03:53;;;;;;;19.02;11.95;;;;;;;15.70;58.09;96447.41;4915553;29;20075;-77
2023/07/03 01:06:28;;;;;;;20.02;12.43;;;;;;;15.66;58.24;96445.22;4915215;29;20471;-76
2023/07/03 01:09:00;;;;;;;20.42;11.75;;;;;;;15.64;58.00;96439.38;4915409;29;20052;-76
2023/07/03 01:11:28;;;;;;;17.95;12.02;;;;;;;15.64;57.91;96438.56;4917315;29;20496;-76
2023/07/03 01:13:59;;;;;;;19.63;11.75;;;;;;;15.67;57.93;96438.13;4919119;29;20099;-77
2023/07/03 01:16:26;;;;;;;21.10;12.48;;;;;;;15.69;57.95;96436.06;4919002;29;20098;-76
2023/07/03 01:18:55;;;;;;;22.80;11.80;;;;;;;15.69;57.83;96435.28;4919032;29;20139;-76
2023/07/03 01:21:30;;;;;;;20.90;11.38;;;;;;;15.66;58.01;96439.16;4918782;29;20059;-76
2023/07/03 01:24:04;;;;;;;23.20;13.10;;;;;;;15.63;58.04;96432.50;4919022;29;20079;-76
2023/07/03 01:26:34;;;;;;;21.95;11.75;;;;;;;15.61;58.02;96433.72;4919050;29;20697;-76
2023/07/03 01:29:04;;;;;;;21.67;11.18;;;;;;;15.59;58.18;96436.59;4918331;29;20138;-76
2023/07/03 01:31:33;;;;;;;22.35;11.90;;;;;;;15.57;57.96;96433.38;4919236;29;20115;-76
2023/07/03 01:34:02;;;;;;;25.02;11.60;;;;;;;15.57;57.67;96433.38;4918921;29;20048;-77
2023/07/03 01:36:31;;;;;;;22.75;11.98;;;;;;;15.56;57.77;96439.63;4929649;29;20044;-76
2023/07/03 01:39:02;;;;;;;22.13;12.40;;;;;;;15.52;58.23;96435.03;4941823;29;20067;-77
2023/07/03 01:41:31;;;;;;;19.80;11.57;;;;;;;15.49;58.07;96435.47;4929495;29;20080;-75
2023/07/03 01:44:00;;;;;;;20.52;11.90;;;;;;;15.48;58.15;96433.84;4919854;29;20497;-75
2023/07/03 01:46:27;;;;;;;25.13;12.20;;;;;;;15.48;57.93;96439.13;4918769;29;20056;-75
2023/07/03 01:48:55;;;;;;;18.92;10.85;;;;;;;15.47;58.00;96425.16;4918687;29;20148;-77
2023/07/03 01:51:31;;;;;;;18.30;11.30;;;;;;;15.48;58.07;96426.78;4918391;29;20107;-77
2023/07/03 01:54:05;;;;;;;22.10;11.43;;;;;;;15.48;58.10;96428.59;4918665;29;20084;-76
2023/07/03 01:56:37;;;;;;;21.13;11.75;;;;;;;15.48;58.08;96421.53;4918516;29;20052;-76
2023/07/03 01:59:11;;;;;;;19.60;10.98;;;;;;;15.50;57.97;96422.09;4918075;29;20491;-77
2023/07/03 02:01:47;;;;;;;23.05;11.23;;;;;;;15.50;58.00;96416.84;4918399;29;20052;-76
2023/07/03 02:04:25;;;;;;;20.83;11.35;;;;;;;15.49;58.03;96417.88;4933371;29;20051;-75
2023/07/03 02:06:54;;;;;;;21.17;11.52;;;;;;;15.47;58.01;96411.22;4918401;29;20062;-76
2023/07/03 02:09:22;;;;;;;17.45;10.70;;;;;;;15.49;57.94;96409.19;4935814;29;20051;-76
2023/07/03 02:11:51;;;;;;;19.65;11.90;;;;;;;15.50;57.80;96408.94;4933110;29;20175;-77
2023/07/03 02:14:20;;;;;;;23.17;11.38;;;;;;;15.52;57.92;96412.16;4936387;29;20093;-76
2023/07/03 02:17:22;;;;;;;21.00;10.75;;;;;;;15.57;57.64;96417.59;4932554;29;20090;-76
2023/07/03 02:19:50;;;;;;;19.88;10.48;;;;;;;15.55;57.50;96417.00;4936319;29;20085;-76
2023/07/03 02:22:18;;;;;;;21.60;10.75;;;;;;;15.56;57.76;96412.56;4935481;29;20111;-76
2023/07/03 02:24:45;;;;;;;24.17;11.43;;;;;;;15.58;57.51;96413.13;4936270;29;20067;-76
2023/07/03 02:27:13;;;;;;;19.38;10.68;;;;;;;15.61;57.43;96413.53;4936819;29;20130;-77
2023/07/03 02:29:42;;;;;;;20.75;11.27;;;;;;;15.62;57.34;96409.84;4936349;29;20150;-76
2023/07/03 02:32:12;;;;;;;20.67;10.93;;;;;;;15.63;57.44;96405.38;4936959;29;20131;-76
2023/07/03 02:34:39;;;;;;;21.67;10.95;;;;;;;15.66;57.43;96403.13;4936295;29;20056;-77
2023/07/03 02:37:09;;;;;;;20.23;11.18;;;;;;;15.70;57.35;96400.06;4936174;29;20499;-77
2023/07/03 02:39:37;;;;;;;20.45;10.77;;;;;;;15.71;57.10;96399.88;4935996;29;20044;-76
2023/07/03 02:42:05;;;;;;;18.02;10.52;;;;;;;15.74;57.39;96406.53;4935399;29;20043;-76
2023/07/03 02:44:33;;;;;;;17.80;10.93;;;;;;;15.75;57.18;96402.88;4928873;29;20052;-76
2023/07/03 02:47:02;;;;;;;19.98;10.60;;;;;;;15.78;57.23;96410.31;4917214;29;20656;-77
2023/07/03 02:49:30;;;;;;;21.88;11.52;;;;;;;15.81;57.12;96409.91;4931296;29;20052;-76
2023/07/03 02:51:58;;;;;;;18.95;10.88;;;;;;;15.83;56.99;96405.19;4935193;29;20056;-77
2023/07/03 02:54:25;;;;;;;22.15;12.85;;;;;;;15.86;56.89;96407.41;4933928;29;20503;-76
2023/07/03 02:56:53;;;;;;;19.10;10.93;;;;;;;15.84;57.11;96405.00;4917152;29;20123;-76
2023/07/03 02:59:21;;;;;;;23.08;10.82;;;;;;;15.85;56.80;96403.16;4916737;29;20134;-76
2023/07/03 03:01:49;;;;;;;20.23;11.45;;;;;;;15.85;56.79;96397.91;4916716;29;20104;-76
2023/07/03 03:04:18;;;;;;;19.92;10.98;;;;;;;15.87;57.01;96401.13;4916842;29;20052;-77
2023/07/03 03:06:46;;;;;;;19.38;11.98;;;;;;;15.89;56.75;96408.78;4916952;29;20058;-76
2023/07/03 03:09:13;;;;;;;16.77;10.20;;;;;;;15.92;56.91;96403.09;4916439;29;20104;-76
2023/07/03 03:11:41;;;;;;;22.48;11.52;;;;;;;15.94;56.90;96401.03;4916918;29;20088;-76
2023/07/03 03:14:08;;;;;;;18.63;11.02;;;;;;;15.96;56.78;96405.09;4917084;29;20139;-76
2023/07/03 03:16:36;;;;;;;20.92;11.40;;;;;;;15.98;56.78;96407.47;4917028;29;20115;-76
2023/07/03 03:19:04;;;;;;;21.55;11.52;;;;;;;16.00;56.69;96408.06;4916382;29;20044;-78
2023/07/03 03:21:33;;;;;;;21.33;10.35;;;;;;;16.03;56.69;96415.53;4926630;29;20525;-76
2023/07/03 03:24:00;;;;;;;18.23;10.63;;;;;;;16.05;56.70;96405.59;4935684;29;20111;-77
2023/07/03 03:26:28;;;;;;;17.25;10.82;;;;;;;16.10;56.62;96412.81;4935770;29;20408;-76
2023/07/03 03:28:57;;;;;;;21.98;10.52;;;;;;;16.15;56.45;96415.56;4935731;29;20083;-77
2023/07/03 03:31:24;;;;;;;22.92;11.07;;;;;;;16.16;56.43;96414.53;4935301;29;20495;-77
2023/07/03 03:33:52;;;;;;;16.73;11.18;;;;;;;16.17;56.21;96408.25;4935322;29;20055;-77
2023/07/03 03:36:20;;;;;;;21.48;11.15;;;;;;;16.17;56.24;96414.31;4935341;29;20114;-76
2023/07/03 03:38:49;;;;;;;24.58;11.95;;;;;;;16.18;56.31;96412.50;4935340;29;20052;-76
2023/07/03 03:41:16;;;;;;;17.85;10.48;;;;;;;16.18;56.29;96413.31;4935262;29;20191;-77
2023/07/03 03:43:46;;;;;;;22.60;11.48;;;;;;;16.18;56.24;96417.75;4935258;29;20063;-76
2023/07/03 03:46:14;;;;;;;19.83;10.38;;;;;;;16.18;56.15;96415.94;4935905;29;20055;-76
2023/07/03 03:48:41;;;;;;;25.05;10.57;;;;;;;16.18;56.23;96413.31;4935170;29;20138;-77
2023/07/03 03:51:09;;;;;;;22.15;11.10;;;;;;;16.22;56.02;96418.91;4935096;29;20051;-77
2023/07/03 03:53:36;;;;;;;17.90;10.32;;;;;;;16.21;56.06;96412.84;4935266;29;20456;-77
2023/07/03 03:56:06;;;;;;;14.52;9.60;;;;;;;16.25;56.04;96415.88;4935203;29;20146;-76
2023/07/03 03:58:33;;;;;;;17.40;9.98;;;;;;;16.27;55.87;96419.88;4935019;29;20136;-77
2023/07/03 04:01:01;;;;;;;21.25;11.52;;;;;;;16.30;55.93;96416.00;4933812;29;20573;-76
2023/07/03 04:03:29;;;;;;;22.17;11.27;;;;;;;16.32;55.84;96413.16;4935282;29;20472;-76
2023/07/03 04:05:57;;;;;;;18.13;11.07;;;;;;;16.39;55.89;96411.22;4935098;29;20055;-76
2023/07/03 04:08:24;;;;;;;18.05;11.00;;;;;;;16.43;55.48;96415.81;4935075;29;20083;-77
2023/07/03 04:10:52;;;;;;;19.27;10.55;;;;;;;16.43;55.62;96415.00;4934700;29;20055;-76
2023/07/03 04:13:21;;;;;;;16.92;10.27;;;;;;;16.44;55.53;96417.44;4934915;29;20051;-75
2023/07/03 04:15:58;;;;;;;18.63;9.93;;;;;;;16.44;55.57;96422.69;4934607;29;20083;-77
2023/07/03 04:18:27;;;;;;;19.48;10.13;;;;;;;16.46;55.42;96412.75;4934896;29;20055;-77
2023/07/03 04:20:55;;;;;;;19.88;10.35;;;;;;;16.46;55.30;96415.38;4934359;29;20139;-77
2023/07/03 04:23:23;;;;;;;18.35;11.23;;;;;;;16.43;55.56;96413.19;4934747;29;20063;-77
2023/07/03 04:25:51;;;;;;;19.75;10.30;;;;;;;16.45;55.63;96413.75;4934702;29;20054;-77
2023/07/03 04:28:22;;;;;;;21.65;11.20;;;;;;;16.51;55.60;96417.34;4934660;29;20422;-77
2023/07/03 04:30:49;;;;;;;17.02;9.20;;;;;;;16.58;55.28;96419.88;4934984;29;20110;-76
2023/07/03 04:33:17;;;;;;;20.60;10.93;;;;;;;16.64;55.36;96426.91;4935922;29;20479;-76
2023/07/03 04:35:47;;;;;;;18.45;9.93;;;;;;;16.69;55.04;96419.13;4935022;29;20071;-77
2023/07/03 04:38:17;;;;;;;21.55;10.65;;;;;;;16.74;55.23;96427.13;4934466;29;20539;-76
2023/07/03 04:40:45;;;;;;;19.52;9.75;;;;;;;16.77;54.90;96426.69;4935027;29;20499;-75
2023/07/03 04:43:15;;;;;;;21.08;10.35;;;;;;;16.79;54.95;96429.91;4934543;29;20502;-73
2023/07/03 04:45:47;;;;;;;20.85;10.88;;;;;;;16.81;54.90;96432.34;4936097;29;20430;-73
2023/07/03 04:48:16;;;;;;;15.25;9.40;;;;;;;16.86;55.03;96430.66;4937161;29;20044;-73
2023/07/03 04:50:45;;;;;;;20.48;9.95;;;;;;;16.92;54.94;96430.75;4940251;29;20126;-74
2023/07/03 04:53:13;;;;;;;19.90;9.85;;;;;;;16.93;54.74;96427.13;4933124;29;20051;-73
2023/07/03 04:55:41;;;;;;;17.00;9.38;;;;;;;16.95;54.86;96423.22;4940880;29;20051;-73
2023/07/03 04:58:11;;;;;;;19.48;10.10;;;;;;;17.00;54.83;96430.44;4928620;29;20627;-73
2023/07/03 05:00:41;;;;;;;21.30;11.00;;;;;;;17.01;54.71;96432.03;4922219;29;20044;-74
2023/07/03 05:03:10;;;;;;;18.98;9.95;;;;;;;17.01;54.85;96438.13;4939866;29;20122;-74
2023/07/03 05:05:38;;;;;;;19.42;11.02;;;;;;;17.03;54.91;96437.88;4935668;29;20075;-74
2023/07/03 05:08:06;;;;;;;25.13;12.98;;;;;;;17.05;54.94;96431.38;4930909;29;20396;-73
2023/07/03 05:10:33;;;;;;;20.05;11.25;;;;;;;17.08;55.02;96438.03;4937289;29;20048;-72
2023/07/03 05:13:01;;;;;;;23.58;11.82;;;;;;;17.12;54.67;96431.28;4932063;29;20571;-73
2023/07/03 05:15:30;;;;;;;18.30;10.77;;;;;;;17.15;54.73;96430.81;4925891;29;20131;-73
2023/07/03 05:17:59;;;;;;;20.67;11.48;;;;;;;17.17;54.54;96435.88;4924621;29;20052;-72
2023/07/03 05:20:29;;;;;;;23.85;11.88;;;;;;;17.19;54.73;96429.31;4939702;29;20103;-74
2023/07/03 05:22:57;;;;;;;19.90;10.80;;;;;;;17.22;54.72;96423.59;4940421;29;20055;-73
2023/07/03 05:25:24;;;;;;;22.23;11.98;;;;;;;17.27;54.44;96426.38;4940919;29;20079;-74
2023/07/03 05:27:52;;;;;;;21.88;11.15;;;;;;;17.33;54.47;96431.75;4940892;29;20095;-74
2023/07/03 05:30:20;;;;;;;22.30;10.63;;;;;;;17.39;54.28;96436.09;4927562;29;20048;-74
2023/07/03 05:32:47;;;;;;;21.25;11.75;;;;;;;17.42;54.48;96433.00;4923110;29;20134;-74
2023/07/03 05:35:15;;;;;;;22.17;10.45;;;;;;;17.51;54.18;96434.25;4942101;29;20052;-74
2023/07/03 05:37:44;;;;;;;20.95;10.55;;;;;;;17.57;54.34;96429.91;4941239;29;20431;-74
2023/07/03 05:40:14;;;;;;;20.90;10.88;;;;;;;17.63;54.39;96429.78;4940267;29;20504;-74
2023/07/03 05:42:43;;;;;;;20.40;10.85;;;;;;;17.69;54.07;96431.50;4941753;29;20055;-75
2023/07/03 05:45:11;;;;;;;28.23;12.20;;;;;;;17.76;54.30;96428.75;4937116;29;20127;-75
2023/07/03 05:47:38;;;;;;;20.80;10.02;;;;;;;17.85;53.25;96442.44;4940370;29;20107;-75
2023/07/03 05:50:07;;;;;;;15.73;9.02;;;;;;;17.91;53.26;96442.28;4930206;29;20043;-74
2023/07/03 05:52:38;;;;;;;17.00;9.23;;;;;;;18.00;53.56;96452.50;4932148;29;20434;-74
2023/07/03 05:55:07;;;;;;;20.25;9.75;;;;;;;18.09;53.02;96457.19;4939217;29;20660;-73
2023/07/03 05:57:35;;;;;;;22.88;8.85;;;;;;;18.19;52.59;96458.41;4937525;29;20078;-74
2023/07/03 06:00:08;;;;;;;17.10;8.85;;;;;;;18.26;52.82;96453.81;4930437;29;20106;-73
2023/07/03 06:02:37;;;;;;;13.90;7.93;;;;;;;18.32;52.48;96466.06;4936825;29;20095;-73
2023/07/03 06:05:05;;;;;;;14.25;8.90;;;;;;;18.38;52.43;96466.97;4928588;29;20056;-73
2023/07/03 06:07:33;;;;;;;16.75;8.68;;;;;;;18.43;51.73;96462.63;4917647;29;20048;-73
2023/07/03 06:10:01;;;;;;;21.40;9.80;;;;;;;18.49;52.04;96468.78;4923525;29;20123;-73
2023/07/03 06:12:30;;;;;;;21.83;9.85;;;;;;;18.54;51.65;96471.50;4935577;29;20056;-72
2023/07/03 06:14:59;;;;;;;20.83;8.85;;;;;;;18.59;51.27;96468.97;4931905;29;20507;-73
2023/07/03 06:17:28;;;;;;;16.20;7.85;;;;;;;18.63;51.69;96475.41;4923954;29;20075;-73
2023/07/03 06:19:56;;;;;;;16.13;8.07;;;;;;;18.69;51.63;96473.63;4935804;29;20051;-73
2023/07/03 06:22:24;;;;;;;17.88;8.65;;;;;;;18.74;51.47;96471.13;4936742;29;20128;-73
2023/07/03 06:24:52;;;;;;;15.75;8.98;;;;;;;18.80;51.34;96480.75;4924991;29;20082;-73
2023/07/03 06:27:19;;;;;;;15.02;8.55;;;;;;;18.85;51.29;96472.94;4936534;29;20142;-73
2023/07/03 06:29:48;;;;;;;14.70;8.63;;;;;;;18.89;51.28;96471.41;4928542;29;20083;-74
2023/07/03 06:32:16;;;;;;;16.48;8.82;;;;;;;18.96;51.32;96473.91;4936139;29;20047;-78
2023/07/03 06:34:44;;;;;;;14.88;8.43;;;;;;;19.02;51.61;96474.78;4937030;29;20079;-78
2023/07/03 06:37:11;;;;;;;15.27;7.85;;;;;;;19.08;51.51;96471.97;4935263;29;20110;-78
2023/07/03 06:39:39;;;;;;;13.80;7.65;;;;;;;19.16;51.56;96472.66;4934325;29;20516;-78
2023/07/03 06:42:09;;;;;;;16.58;8.65;;;;;;;19.23;50.70;96482.03;4934758;29;20365;-78
2023/07/03 06:44:37;;;;;;;15.55;8.02;;;;;;;19.30;50.85;96474.72;4935001;29;20051;-78
2023/07/03 06:47:07;;;;;;;14.90;7.82;;;;;;;19.34;49.82;96473.19;4934765;29;20131;-76
2023/07/03 06:49:36;;;;;;;18.35;8.38;;;;;;;19.39;50.00;96477.78;4934558;29;20052;-76
2023/07/03 06:52:04;;;;;;;16.45;8.45;;;;;;;19.44;49.45;96475.22;4935181;29;20086;-76
2023/07/03 06:54:32;;;;;;;14.20;7.57;;;;;;;19.49;49.52;96482.44;4936484;29;20106;-76
2023/07/03 06:57:00;;;;;;;17.08;8.38;;;;;;;19.55;49.75;96476.19;4934390;29;20106;-77
2023/07/03 06:59:28;;;;;;;14.07;7.30;;;;;;;19.63;49.20;96481.03;4935620;29;20107;-76
2023/07/03 07:01:56;;;;;;;12.85;7.43;;;;;;;19.68;49.12;96475.84;4935933;29;20047;-77
2023/07/03 07:04:27;;;;;;;12.85;7.68;;;;;;;19.75;48.61;96478.34;4936252;29;20074;-75
2023/07/03 07:06:56;;;;;;;10.57;6.57;;;;;;;19.82;48.58;96481.63;4934881;29;20055;-76
2023/07/03 07:09:24;;;;;;;14.70;7.63;;;;;;;19.88;48.31;96466.63;4935483;29;20052;-76
2023/07/03 07:11:51;;;;;;;14.80;7.85;;;;;;;19.96;48.19;96471.47;4936120;29;20051;-76
2023/07/03 07:14:19;;;;;;;16.45;8.00;;;;;;;20.04;48.53;96476.34;4936117;29;20048;-77
2023/07/03 07:16:46;;;;;;;13.65;7.20;;;;;;;20.11;47.42;96473.53;4935836;29;20554;-76
2023/07/03 07:19:14;;;;;;;16.85;7.13;;;;;;;20.16;47.09;96481.56;4935491;29;20538;-76
2023/07/03 07:21:44;;;;;;;15.13;7.13;;;;;;;20.19;46.49;96477.63;4935697;29;20492;-76
2023/07/03 07:24:16;;;;;;;13.13;6.90;;;;;;;20.22;46.25;96475.25;4935734;29;20142;-76
2023/07/03 07:26:44;;;;;;;14.77;6.88;;;;;;;20.25;46.17;96474.78;4936490;29;20064;-76
2023/07/03 07:29:12;;;;;;;13.10;7.15;;;;;;;20.30;46.24;96471.41;4935888;29;20079;-76
2023/07/03 07:31:40;;;;;;;13.30;6.72;;;;;;;20.34;46.20;96467.22;4935681;29;20052;-76
2023/07/03 07:34:11;;;;;;;14.23;7.47;;;;;;;20.38;46.35;96474.41;4935778;29;20048;-77
2023/07/03 07:36:40;;;;;;;11.98;7.18;;;;;;;20.44;45.56;96477.91;4935330;29;20146;-77
2023/07/03 07:39:09;;;;;;;12.02;6.97;;;;;;;20.47;45.18;96471.34;4935069;29;20111;-76
2023/07/03 07:41:37;;;;;;;11.15;6.47;;;;;;;20.49;45.38;96477.97;4935363;29;20044;-77
2023/07/03 07:44:05;;;;;;;11.43;6.40;;;;;;;20.56;45.22;96475.13;4935321;29;20489;-76
2023/07/03 07:46:35;;;;;;;14.95;6.80;;;;;;;20.64;45.01;96474.72;4935292;29;20492;-75
2023/07/03 07:49:03;;;;;;;14.45;6.93;;;;;;;20.71;44.91;96487.78;4935836;29;20052;-77
2023/07/03 07:51:31;;;;;;;14.68;7.10;;;;;;;20.75;44.33;96483.56;4936559;29;20052;-77
2023/07/03 07:53:59;;;;;;;15.18;6.90;;;;;;;20.77;44.18;96481.47;4936156;29;20471;-77
2023/07/03 07:56:28;;;;;;;11.93;5.55;;;;;;;20.79;44.20;96476.72;4936556;29;20055;-78
2023/07/03 07:58:59;;;;;;;;;;;;;;;20.86;44.92;96482.66;4936478;29;20103;-78
2023/07/03 08:01:27;;;;;;;14.45;6.60;;;;;;;20.91;43.98;96479.25;4935770;29;19926;-78
2023/07/03 08:03:55;;;;;;;12.00;7.22;;;;;;;20.88;43.89;96477.91;4935918;29;20058;-77
2023/07/03 08:06:23;;;;;;;12.23;6.63;;;;;;;20.87;44.12;96459.59;4936060;29;20084;-78
2023/07/03 08:08:51;;;;;;;17.50;6.55;;;;;;;20.86;43.59;96487.94;4935460;29;20145;-77
2023/07/03 08:11:19;;;;;;;12.23;6.00;;;;;;;20.83;43.74;96485.78;4935540;29;20570;-78
2023/07/03 08:13:48;;;;;;;10.90;6.20;;;;;;;20.84;43.78;96486.56;4936072;29;20047;-77
2023/07/03 08:16:19;;;;;;;13.95;6.57;;;;;;;20.86;43.80;96472.03;4935763;29;20047;-78
2023/07/03 08:18:46;;;;;;;11.63;6.40;;;;;;;20.89;43.84;96484.78;4935571;29;20138;-77
2023/07/03 08:21:16;;;;;;;14.35;7.32;;;;;;;20.95;43.63;96480.34;4934468;29;20086;-77
2023/07/03 08:23:44;;;;;;;17.20;6.30;;;;;;;20.97;43.76;96475.59;4935473;29;20059;-77
2023/07/03 08:26:18;;;;;;;13.98;6.35;;;;;;;21.02;43.46;96477.50;4935443;29;20134;-77
2023/07/03 08:28:45;;;;;;;12.82;6.82;;;;;;;21.08;43.50;96487.06;4935661;29;20075;-77
2023/07/03 08:31:14;;;;;;;12.82;6.55;;;;;;;21.12;43.14;96496.94;4934933;29;20591;-78
2023/07/03 08:33:42;;;;;;;13.85;6.60;;;;;;;21.14;43.03;96473.63;4935831;29;20052;-77
2023/07/03 08:36:09;;;;;;;12.15;6.88;;;;;;;21.16;43.22;96478.66;4935798;29;20055;-78
2023/07/03 08:38:40;;;;;;;10.90;6.72;;;;;;;21.17;43.22;96474.97;4935850;29;20134;-77
2023/07/03 08:41:12;;;;;;;15.73;6.93;;;;;;;21.18;42.88;96481.88;4935378;29;20052;-78
2023/07/03 08:43:42;;;;;;;13.63;6.80;;;;;;;21.22;43.14;96482.19;4935545;29;20055;-78
2023/07/03 08:46:12;;;;;;;14.35;6.72;;;;;;;21.21;42.98;96476.06;4935501;29;20088;-77
2023/07/03 08:48:43;;;;;;;11.65;6.30;;;;;;;21.24;42.92;96480.88;4935088;29;20048;-77
2023/07/03 08:51:15;;;;;;;13.63;6.72;;;;;;;21.28;42.61;96481.97;4935199;29;20059;-77
2023/07/03 08:53:45;;;;;;;12.30;6.07;;;;;;;21.28;43.09;96475.88;4935207;29;20051;-77
2023/07/03 08:56:17;;;;;;;10.52;5.97;;;;;;;21.29;43.27;96477.44;4935649;29;20056;-78
2023/07/03 08:58:46;;;;;;;16.10;6.60;;;;;;;21.32;43.23;96472.44;4945446;29;20060;-76
2023/07/03 09:01:21;;;;;;;15.48;7.00;;;;;;;21.37;43.23;96480.44;4943300;29;20048;-77
2023/07/03 09:04:04;;;;;;;15.02;6.80;;;;;;;21.36;43.19;96468.25;4941757;29;20471;-77
2023/07/03 09:06:40;;;;;;;21.70;11.35;;;;;;;21.30;43.56;96479.84;4935727;29;20084;-76
2023/07/03 09:09:14;;;;;;;14.90;7.85;;;;;;;21.25;43.49;96482.44;4934001;29;20056;-75
2023/07/03 09:11:49;;;;;;;19.70;8.73;;;;;;;21.23;43.34;96492.53;4934147;29;20051;-77
2023/07/03 09:14:23;;;;;;;13.98;7.60;;;;;;;21.21;43.42;96492.00;4935581;29;20135;-77
2023/07/03 09:16:51;;;;;;;16.15;7.80;;;;;;;21.16;42.99;96499.88;4934888;29;20075;-78
2023/07/03 09:19:24;;;;;;;19.80;8.00;;;;;;;21.09;43.54;96504.59;4934541;29;20054;-77
2023/07/03 09:21:54;;;;;;;13.50;6.88;;;;;;;21.03;43.63;96511.69;4934918;29;20063;-77
2023/07/03 09:24:27;;;;;;;12.20;7.18;;;;;;;20.99;43.86;96516.72;4934958;29;20499;-78
2023/07/03 09:27:04;;;;;;;14.60;7.63;;;;;;;20.93;44.04;96517.72;4935255;29;20107;-78
2023/07/03 09:29:35;;;;;;;17.08;7.28;;;;;;;20.84;44.60;96521.03;4934855;29;20525;-78
2023/07/03 09:32:04;;;;;;;15.48;7.70;;;;;;;20.76;44.65;96528.38;4936569;29;20099;-78
2023/07/03 09:35:08;;;;;;;12.52;6.90;;;;;;;20.69;45.24;96532.28;4938334;29;20052;-77
2023/07/03 09:37:38;;;;;;;19.67;8.82;;;;;;;20.63;45.22;96533.28;4938238;29;20533;-78
2023/07/03 09:40:09;;;;;;;14.93;7.90;;;;;;;20.64;45.53;96534.88;4937744;29;20055;-78
2023/07/03 09:42:37;;;;;;;12.90;7.65;;;;;;;20.65;45.56;96523.22;4938832;29;20054;-78
2023/07/03 09:45:13;;;;;;;14.52;7.22;;;;;;;20.67;45.96;96518.50;4938766;29;20139;-77
2023/07/03 09:47:46;;;;;;;17.23;8.98;;;;;;;20.67;45.81;96523.78;4938987;29;20115;-77
2023/07/03 09:50:21;;;;;;;57.85;25.33;;;;;;;20.76;46.08;96522.28;4938467;29;20043;-78
2023/07/03 09:52:54;;;;;;;30.05;15.98;;;;;;;20.92;46.15;96518.75;4938896;29;20126;-76
2023/07/03 09:55:26;;;;;;;19.23;9.23;;;;;;;21.05;45.68;96519.41;4938947;29;20504;-78
2023/07/03 09:57:54;;;;;;;14.95;7.95;;;;;;;21.16;45.34;96516.59;4938658;29;20076;-78
2023/07/03 10:00:26;;;;;;;16.15;8.70;;;;;;;21.29;45.09;96520.69;4937847;29;20056;-78
2023/07/03 10:02:56;;;;;;;18.58;8.90;;;;;;;21.40;44.95;96526.88;4938207;29;20083;-77
2023/07/03 10:05:31;;;;;;;15.55;7.65;;;;;;;21.48;44.98;96544.25;4937673;29;20132;-77
2023/07/03 10:08:04;;;;;;;16.67;8.65;;;;;;;21.48;44.19;96526.47;4937775;29;20098;-78
2023/07/03 10:10:34;;;;;;;19.45;9.07;;;;;;;21.40;44.41;96532.19;4937294;29;20075;-77
2023/07/03 10:13:09;;;;;;;20.20;9.15;;;;;;;21.45;44.96;96523.50;4937777;29;20054;-78
2023/07/03 10:15:39;;;;;;;14.90;7.22;;;;;;;21.53;44.67;96523.03;4937550;29;20582;-77
2023/07/03 10:18:12;;;;;;;14.48;7.15;;;;;;;21.61;44.34;96522.59;4937935;29;20075;-77
2023/07/03 10:20:43;;;;;;;21.23;8.90;;;;;;;21.66;44.24;96533.22;4938248;29;20056;-78
2023/07/03 10:23:12;;;;;;;13.20;7.85;;;;;;;;;;4938153;29;20075;-77
2023/07/03 10:25:44;;;;;;;15.77;8.02;;;;;;;21.83;43.70;96537.63;4937543;29;20044;-78
2023/07/03 10:28:18;;;;;;;13.57;7.63;;;;;;;21.84;43.60;96541.84;4938015;29;20063;-77
2023/07/03 10:30:48;;;;;;;34.30;14.93;;;;;;;21.84;43.40;96533.91;4937537;29;20495;-77
2023/07/03 10:33:22;;;;;;;27.20;13.27;;;;;;;21.80;43.44;96536.28;4937662;29;20130;-77
2023/07/03 10:35:52;;;;;;;21.20;9.77;;;;;;;21.85;43.39;96538.16;4938334;29;20047;-77
2023/07/03 10:38:30;;;;;;;10.05;7.20;;;;;;;21.88;43.19;96542.94;4937874;29;20055;-78
2023/07/03 10:41:03;;;;;;;15.82;8.55;;;;;;;21.90;43.68;96538.19;4937932;29;20060;-78
2023/07/03 10:43:37;;;;;;;15.82;8.05;;;;;;;21.89;43.52;96539.25;4937461;29;20047;-78
2023/07/03 10:46:08;;;;;;;17.73;8.10;;;;;;;21.90;43.65;96541.63;4938811;29;20051;-78
2023/07/03 10:48:37;;;;;;;12.63;7.25;;;;;;;21.99;43.57;96539.31;4937723;29;20051;-78
2023/07/03 10:51:18;;;;;;;19.73;9.52;;;;;;;22.07;43.43;96538.84;4937938;29;20076;-78
2023/07/03 10:53:51;;;;;;;15.43;8.30;;;;;;;22.12;42.35;96549.47;4937328;29;20054;-77
2023/07/03 10:56:24;;;;;;;15.40;7.43;;;;;;;22.13;41.87;96548.44;4937671;29;20149;-78
2023/07/03 10:59:00;;;;;;;15.68;7.78;;;;;;;22.18;41.83;96532.53;4938072;29;20056;-77
2023/07/03 11:01:40;;;;;;;11.98;6.65;;;;;;;22.32;42.52;96535.53;4937224;29;20476;-78
2023/07/03 11:04:19;;;;;;;12.77;6.78;;;;;;;22.45;41.86;96531.59;4937508;29;20508;-78
2023/07/03 11:07:04;;;;;;;18.15;7.47;;;;;;;22.58;41.60;96541.75;4937436;29;20134;-78
2023/07/03 11:09:42;;;;;;;17.52;7.38;;;;;;;22.63;41.31;96522.41;4937809;29;20409;-78
2023/07/03 11:12:17;;;;;;;15.52;7.35;;;;;;;22.60;41.13;96522.91;4937577;29;20089;-78
2023/07/03 11:14:55;;;;;;;12.85;7.25;;;;;;;22.59;40.52;96532.75;4937554;29;20075;-77
2023/07/03 11:17:33;;;;;;;10.50;6.13;;;;;;;22.63;40.25;96525.06;4937688;29;20055;-77
2023/07/03 11:20:08;;;;;;;12.35;7.20;;;;;;;22.64;39.67;96513.34;4937156;29;20060;-78
2023/07/03 11:22:48;;;;;;;14.57;6.82;;;;;;;22.70;39.88;96522.16;4936779;29;20098;-78
2023/07/03 11:28:33;;;;;;;10.23;6.07;;;;;;;22.79;39.68;96520.59;4936546;29;20443;-78
2023/07/03 11:31:04;;;;;;;13.55;6.75;;;;;;;22.80;40.32;96516.84;4936568;29;20055;-78
2023/07/03 11:33:33;;;;;;;9.30;5.97;;;;;;;22.81;39.96;96524.56;4937695;29;20052;-78
2023/07/03 11:36:05;;;;;;;11.68;6.25;;;;;;;22.84;40.31;96517.94;4937956;29;20357;-78
2023/07/03 11:38:35;;;;;;;14.23;6.53;;;;;;;22.89;39.97;96514.47;4938165;29;20083;-78